Trinity, Florida
Current Conditions -  °F | °C
As of 9:53 PM on Friday 21 Nov 2014 (Local Time) from KBKV Reporting Station
Overcast Overcast  
Wind Chill: 61°   Ceiling: 10000
Heat Index: 61°   Visibility: 10mi
Dew Point: 51°   Wind: 9mph
Humidity: 70%   Direction: 40°NE
Pressure: 30.28"   Gusts: NA
Location:  28.2318°N, 82.5991°W
Report Text: KBKV 220253Z AUTO 04008KT 10SM OVC100 16/11 A3028 RMK AO2 SLP253 T01610106 50001
Loading
Personal Weather Stations






























Interactive Weather Map New forecast layout! Learn more

10-Day Weather Forecast

Advertisements
Track Severe Weather on mobile